Pagrindinis puslapis
METAR-TAF:

METAR-TAF

Oro uostai :

Şırnak, Turkija

platuma: 37-21-50N, ilguma: 42-03-36E, Aukštis: 621 m

Dabartinis oras

Ataskaita buvo paskelbta 1 valandą ir 15 minutes, ne 12:50 UTC
Vėjas 4 kt iš Vakarų/Pietvakarių, svyruoja nuo Pietų ir Vakarų/Šiaurės Vakarų
Temperatūra 24°C
Drėgmė 34%
Slėgis 1011 hPa
Matomumas 10 km arba daugiau
nėra debesų žemiau 1500 m ir nėra kamuolinių lietaus debesų

METAR: LTCV 131250Z 25004KT 190V290 CAVOK 24/07 Q1011

Laikas: 17:05 (14:05 UTC)

Prognozė

Ataskaita buvo paskelbta 3 valandos ir 25 minutes, ne 10:40 UTC
Prognozė galioja nuo 13 metu 12 UTC su 14 metu 12 UTC
Vėjas 2 kt nuo kintamojo kryptimis
Matomumas 10 km arba daugiau
nėra debesų žemiau 1500 m ir nėra kamuolinių lietaus debesų

TAF: LTCV 131040Z 1312/1412 VRB02KT CAVOK

Orai ataskaitas ir orų prognozės (METAR, TAF).

turimą stotys yra geltonos ir raudonos taškus žemėlapyje.

Perkelti pele per norėdami pamatyti stoties vardą.

Tada spustelėkite, norėdami matyti oro stebėjimo ir prognozės.

Norėdami pakeisti žemėlapį: spustelėkite ant žalios mygtukų su juodo kryžiaus žemyn,; žalią mygtuką su brūkšneliu, jei norite nutolinti; arba žalių rodyklių gretimoms žemėlapius.


METAR-TAF: